TRA42V EBBR-LIBD
Flight info
| Callsign | TRA42V |
|---|---|
| Flight time | 1h 57m |
| Altitude | 35000 |
| Route | PITES DCT KRH DCT UTABA DCT BEMKI DCT ELMEM DCT GIRIS DCT PEVAL DCT AIOSA DCT BANAV |
| Aircraft | B738/M-SDE2E3FGHIJ1RWXYZ/LB1 |
Departure
| Time | 2026-05-07 16:55 |
|---|---|
| Airport | Brussels Airport (EBBR) |
Arrival
| Time | 2026-05-07 18:52 |
|---|---|
| Airport | Bari Karol Wojtyła International Airport (LIBD) |
| Time | Latitude | Longitude | Altitude | Speed | Heading |
|---|---|---|---|---|---|
| 2026-05-07 15:53 | 50.90247 | 4.48035 | 120 ft | 0 kts | 155° |
| 2026-05-07 16:43 | 50.90257 | 4.48028 | 117 ft | 4 kts | 154° |
| 2026-05-07 16:43 | 50.90281 | 4.48009 | 116 ft | 4 kts | 150° |
| 2026-05-07 16:43 | 50.90304 | 4.47986 | 117 ft | 4 kts | 137° |
| 2026-05-07 16:44 | 50.90318 | 4.47956 | 119 ft | 4 kts | 87° |
| 2026-05-07 16:44 | 50.90317 | 4.47944 | 116 ft | 1 kts | 65° |
| 2026-05-07 16:48 | 50.90318 | 4.47947 | 116 ft | 1 kts | 65° |
| 2026-05-07 16:49 | 50.90329 | 4.47982 | 117 ft | 6 kts | 64° |
| 2026-05-07 16:49 | 50.90364 | 4.48043 | 119 ft | 8 kts | 9° |
| 2026-05-07 16:49 | 50.90419 | 4.48042 | 118 ft | 8 kts | 36° |
| 2026-05-07 16:49 | 50.90449 | 4.48125 | 120 ft | 10 kts | 65° |
| 2026-05-07 16:50 | 50.90484 | 4.48246 | 117 ft | 14 kts | 65° |
| 2026-05-07 16:50 | 50.90532 | 4.48407 | 119 ft | 18 kts | 66° |
| 2026-05-07 16:50 | 50.90586 | 4.48597 | 118 ft | 19 kts | 64° |
| 2026-05-07 16:50 | 50.90640 | 4.48784 | 116 ft | 18 kts | 67° |
| 2026-05-07 16:51 | 50.90692 | 4.48964 | 118 ft | 18 kts | 65° |
| 2026-05-07 16:51 | 50.90742 | 4.49139 | 118 ft | 17 kts | 65° |
| 2026-05-07 16:51 | 50.90790 | 4.49306 | 119 ft | 16 kts | 65° |
| 2026-05-07 16:51 | 50.90837 | 4.49468 | 121 ft | 16 kts | 65° |
| 2026-05-07 16:52 | 50.90881 | 4.49619 | 122 ft | 10 kts | 65° |
| 2026-05-07 16:52 | 50.90909 | 4.49658 | 122 ft | 5 kts | 18° |
| 2026-05-07 16:52 | 50.90942 | 4.49665 | 120 ft | 5 kts | 1° |
| 2026-05-07 16:52 | 50.90974 | 4.49639 | 118 ft | 6 kts | 295° |
| 2026-05-07 16:53 | 50.90979 | 4.49553 | 119 ft | 9 kts | 282° |
| 2026-05-07 16:53 | 50.90999 | 4.49511 | 119 ft | 2 kts | 327° |
| 2026-05-07 16:53 | 50.91016 | 4.49500 | 116 ft | 3 kts | 335° |
| 2026-05-07 16:53 | 50.91017 | 4.49464 | 118 ft | 4 kts | 250° |
| 2026-05-07 16:54 | 50.90983 | 4.49346 | 117 ft | 36 kts | 245° |
| 2026-05-07 16:54 | 50.90777 | 4.48632 | 117 ft | 105 kts | 245° |
| 2026-05-07 16:54 | 50.90391 | 4.47292 | 123 ft | 161 kts | 245° |
| 2026-05-07 16:54 | 50.89863 | 4.45602 | 632 ft | 169 kts | 243° |
| 2026-05-07 16:55 | 50.89343 | 4.43975 | 1547 ft | 161 kts | 242° |
| 2026-05-07 16:55 | 50.88770 | 4.42372 | 2103 ft | 178 kts | 227° |
| 2026-05-07 16:55 | 50.87581 | 4.41563 | 2378 ft | 205 kts | 176° |
| 2026-05-07 16:55 | 50.86250 | 4.42479 | 2659 ft | 221 kts | 132° |
| 2026-05-07 16:56 | 50.85295 | 4.44485 | 2971 ft | 239 kts | 125° |
| 2026-05-07 16:56 | 50.84265 | 4.46685 | 3293 ft | 256 kts | 127° |
| 2026-05-07 16:56 | 50.81999 | 4.51196 | 4864 ft | 262 kts | 129° |
| 2026-05-07 16:57 | 50.80830 | 4.53417 | 5732 ft | 265 kts | 130° |
| 2026-05-07 16:57 | 50.79623 | 4.55661 | 6518 ft | 269 kts | 131° |
| 2026-05-07 16:57 | 50.78390 | 4.57920 | 7258 ft | 273 kts | 131° |
| 2026-05-07 16:57 | 50.77137 | 4.60197 | 8002 ft | 277 kts | 132° |
| 2026-05-07 16:58 | 50.75862 | 4.62504 | 8744 ft | 280 kts | 132° |
| 2026-05-07 16:58 | 50.74571 | 4.64836 | 9493 ft | 284 kts | 132° |
| 2026-05-07 16:58 | 50.73278 | 4.67166 | 10203 ft | 288 kts | 132° |
| 2026-05-07 16:58 | 50.71917 | 4.69609 | 10510 ft | 307 kts | 132° |
| 2026-05-07 16:59 | 50.70451 | 4.72238 | 10699 ft | 330 kts | 132° |
| 2026-05-07 16:59 | 50.69093 | 4.75280 | 10875 ft | 352 kts | 113° |
| 2026-05-07 16:59 | 50.68395 | 4.79042 | 11404 ft | 361 kts | 105° |
| 2026-05-07 16:59 | 50.67752 | 4.82895 | 12096 ft | 364 kts | 106° |
| 2026-05-07 17:00 | 50.67069 | 4.86754 | 12806 ft | 367 kts | 107° |
| 2026-05-07 17:00 | 50.66275 | 4.90598 | 13468 ft | 371 kts | 116° |
| 2026-05-07 17:00 | 50.64763 | 4.93881 | 14100 ft | 372 kts | 135° |
| 2026-05-07 17:00 | 50.62918 | 4.96766 | 14731 ft | 375 kts | 137° |
| 2026-05-07 17:01 | 50.61033 | 4.99636 | 15320 ft | 379 kts | 137° |
| 2026-05-07 17:01 | 50.59122 | 5.02531 | 15905 ft | 383 kts | 137° |
| 2026-05-07 17:01 | 50.57193 | 5.05463 | 16494 ft | 387 kts | 137° |
| 2026-05-07 17:01 | 50.55253 | 5.08427 | 17083 ft | 391 kts | 137° |
| 2026-05-07 17:02 | 50.53301 | 5.11420 | 17654 ft | 394 kts | 137° |
| 2026-05-07 17:02 | 50.51329 | 5.14452 | 18230 ft | 398 kts | 137° |
| 2026-05-07 17:02 | 50.49338 | 5.17513 | 18745 ft | 402 kts | 137° |
| 2026-05-07 17:02 | 50.47358 | 5.20559 | 19255 ft | 404 kts | 137° |
| 2026-05-07 17:03 | 50.45343 | 5.23655 | 19770 ft | 407 kts | 137° |
| 2026-05-07 17:03 | 50.43311 | 5.26774 | 20274 ft | 410 kts | 137° |
| 2026-05-07 17:03 | 50.41265 | 5.29911 | 20761 ft | 413 kts | 137° |
| 2026-05-07 17:03 | 50.39207 | 5.33062 | 21245 ft | 415 kts | 137° |
| 2026-05-07 17:04 | 50.37127 | 5.36243 | 21714 ft | 418 kts | 137° |
| 2026-05-07 17:04 | 50.35036 | 5.39435 | 22182 ft | 421 kts | 137° |
| 2026-05-07 17:04 | 50.32927 | 5.42652 | 22640 ft | 424 kts | 137° |
| 2026-05-07 17:04 | 50.30800 | 5.45891 | 23093 ft | 427 kts | 137° |
| 2026-05-07 17:05 | 50.28667 | 5.49136 | 23529 ft | 430 kts | 137° |
| 2026-05-07 17:05 | 50.26513 | 5.52407 | 23902 ft | 433 kts | 137° |
| 2026-05-07 17:05 | 50.24377 | 5.55647 | 24294 ft | 435 kts | 137° |
| 2026-05-07 17:05 | 50.22205 | 5.58939 | 24677 ft | 436 kts | 137° |
| 2026-05-07 17:06 | 50.20016 | 5.62251 | 25033 ft | 439 kts | 137° |
| 2026-05-07 17:06 | 50.17813 | 5.65580 | 25368 ft | 441 kts | 137° |
| 2026-05-07 17:06 | 50.15600 | 5.68921 | 25724 ft | 444 kts | 137° |
| 2026-05-07 17:06 | 50.13372 | 5.72279 | 26068 ft | 446 kts | 137° |
| 2026-05-07 17:07 | 50.11135 | 5.75647 | 26393 ft | 448 kts | 137° |
| 2026-05-07 17:07 | 50.08902 | 5.79004 | 26716 ft | 450 kts | 137° |
| 2026-05-07 17:07 | 50.06636 | 5.82404 | 27028 ft | 452 kts | 137° |
| 2026-05-07 17:07 | 50.04375 | 5.85790 | 27323 ft | 454 kts | 137° |
| 2026-05-07 17:08 | 50.02113 | 5.89174 | 27612 ft | 457 kts | 137° |
| 2026-05-07 17:08 | 49.99813 | 5.92610 | 27896 ft | 459 kts | 137° |
| 2026-05-07 17:08 | 49.97506 | 5.96054 | 28181 ft | 461 kts | 137° |
| 2026-05-07 17:08 | 49.95185 | 5.99515 | 28467 ft | 463 kts | 137° |
| 2026-05-07 17:09 | 49.92855 | 6.02986 | 28735 ft | 465 kts | 137° |
| 2026-05-07 17:09 | 49.90519 | 6.06462 | 29001 ft | 467 kts | 137° |
| 2026-05-07 17:09 | 49.88178 | 6.09937 | 29255 ft | 469 kts | 137° |
| 2026-05-07 17:09 | 49.85897 | 6.13585 | 29503 ft | 472 kts | 128° |
| 2026-05-07 17:10 | 49.84238 | 6.17967 | 29848 ft | 473 kts | 117° |
| 2026-05-07 17:10 | 49.82779 | 6.22520 | 30272 ft | 470 kts | 117° |
| 2026-05-07 17:10 | 49.81313 | 6.27043 | 30585 ft | 470 kts | 118° |
| 2026-05-07 17:10 | 49.79820 | 6.31548 | 30825 ft | 471 kts | 118° |
| 2026-05-07 17:11 | 49.78301 | 6.36043 | 31031 ft | 472 kts | 118° |
| 2026-05-07 17:11 | 49.76767 | 6.40531 | 31288 ft | 472 kts | 118° |
| 2026-05-07 17:11 | 49.75228 | 6.45021 | 31604 ft | 471 kts | 118° |
| 2026-05-07 17:11 | 49.73694 | 6.49495 | 31905 ft | 470 kts | 118° |
| 2026-05-07 17:12 | 49.72158 | 6.53969 | 32174 ft | 470 kts | 118° |
| 2026-05-07 17:12 | 49.70652 | 6.58355 | 32413 ft | 471 kts | 119° |
| 2026-05-07 17:12 | 49.69116 | 6.62826 | 32677 ft | 471 kts | 119° |
| 2026-05-07 17:12 | 49.67581 | 6.67286 | 32968 ft | 470 kts | 119° |
| 2026-05-07 17:13 | 49.66043 | 6.71750 | 33233 ft | 470 kts | 119° |
| 2026-05-07 17:13 | 49.64508 | 6.76199 | 33492 ft | 470 kts | 118° |
| 2026-05-07 17:13 | 49.62972 | 6.80644 | 33747 ft | 470 kts | 118° |
| 2026-05-07 17:13 | 49.61433 | 6.85089 | 34020 ft | 469 kts | 118° |
| 2026-05-07 17:14 | 49.59897 | 6.89517 | 34235 ft | 469 kts | 118° |
| 2026-05-07 17:14 | 49.58354 | 6.93955 | 34409 ft | 469 kts | 118° |
| 2026-05-07 17:14 | 49.56812 | 6.98382 | 34600 ft | 469 kts | 118° |
| 2026-05-07 17:14 | 49.55269 | 7.02807 | 34827 ft | 469 kts | 119° |
| 2026-05-07 17:15 | 49.53722 | 7.07237 | 35046 ft | 468 kts | 119° |
| 2026-05-07 17:15 | 49.52176 | 7.11654 | 35217 ft | 469 kts | 119° |
| 2026-05-07 17:15 | 49.50644 | 7.16024 | 35328 ft | 471 kts | 119° |
| 2026-05-07 17:15 | 49.49089 | 7.20452 | 35517 ft | 471 kts | 119° |
| 2026-05-07 17:16 | 49.47531 | 7.24880 | 35739 ft | 469 kts | 119° |
| 2026-05-07 17:16 | 49.45979 | 7.29286 | 35938 ft | 469 kts | 120° |
| 2026-05-07 17:16 | 49.44420 | 7.33704 | 36087 ft | 469 kts | 120° |
| 2026-05-07 17:16 | 49.42862 | 7.38111 | 36236 ft | 470 kts | 120° |
| 2026-05-07 17:17 | 49.41297 | 7.42528 | 36423 ft | 470 kts | 120° |
| 2026-05-07 17:17 | 49.39736 | 7.46930 | 36604 ft | 469 kts | 120° |
| 2026-05-07 17:17 | 49.38174 | 7.51324 | 36753 ft | 469 kts | 120° |
| 2026-05-07 17:17 | 49.36608 | 7.55725 | 36913 ft | 469 kts | 120° |
| 2026-05-07 17:18 | 49.35038 | 7.60126 | 37024 ft | 470 kts | 120° |
| 2026-05-07 17:18 | 49.33465 | 7.64531 | 37031 ft | 472 kts | 120° |
| 2026-05-07 17:18 | 49.30303 | 7.73359 | 37038 ft | 471 kts | 120° |
| 2026-05-07 17:19 | 49.27169 | 7.82083 | 37042 ft | 469 kts | 120° |
| 2026-05-07 17:19 | 49.24003 | 7.90866 | 37038 ft | 467 kts | 120° |
| 2026-05-07 17:20 | 49.20878 | 7.99503 | 37035 ft | 466 kts | 121° |
| 2026-05-07 17:20 | 49.17732 | 8.08173 | 37058 ft | 466 kts | 121° |
| 2026-05-07 17:21 | 49.14577 | 8.16837 | 37052 ft | 467 kts | 121° |
| 2026-05-07 17:21 | 49.11397 | 8.25540 | 37051 ft | 469 kts | 121° |
| 2026-05-07 17:22 | 49.08225 | 8.34194 | 37050 ft | 471 kts | 121° |
| 2026-05-07 17:22 | 49.05011 | 8.42936 | 37049 ft | 472 kts | 121° |
| 2026-05-07 17:23 | 49.01786 | 8.51682 | 37048 ft | 474 kts | 121° |
| 2026-05-07 17:23 | 48.98004 | 8.59840 | 37042 ft | 471 kts | 136° |
| 2026-05-07 17:24 | 48.93047 | 8.66195 | 37043 ft | 468 kts | 144° |
| 2026-05-07 17:24 | 48.87887 | 8.72266 | 37042 ft | 469 kts | 144° |
| 2026-05-07 17:25 | 48.82748 | 8.78370 | 37029 ft | 469 kts | 144° |
| 2026-05-07 17:25 | 48.77615 | 8.84519 | 37046 ft | 469 kts | 144° |
| 2026-05-07 17:26 | 48.72492 | 8.90660 | 37032 ft | 469 kts | 144° |
| 2026-05-07 17:26 | 48.67408 | 8.96737 | 37041 ft | 468 kts | 144° |
| 2026-05-07 17:27 | 48.62289 | 9.02836 | 37045 ft | 468 kts | 144° |
| 2026-05-07 17:27 | 48.57177 | 9.08909 | 37046 ft | 467 kts | 144° |
| 2026-05-07 17:28 | 48.52930 | 9.13943 | 37045 ft | 467 kts | 144° |
| 2026-05-07 17:28 | 48.47809 | 9.19999 | 37030 ft | 467 kts | 144° |
| 2026-05-07 17:29 | 48.42695 | 9.26030 | 37030 ft | 467 kts | 144° |
| 2026-05-07 17:29 | 48.37579 | 9.32048 | 37039 ft | 467 kts | 144° |
| 2026-05-07 17:30 | 48.32455 | 9.38060 | 37035 ft | 467 kts | 144° |
| 2026-05-07 17:30 | 48.27335 | 9.44055 | 37038 ft | 467 kts | 145° |
| 2026-05-07 17:31 | 48.22244 | 9.50105 | 37018 ft | 467 kts | 144° |
| 2026-05-07 17:31 | 48.17222 | 9.56317 | 37030 ft | 468 kts | 143° |
| 2026-05-07 17:32 | 48.12197 | 9.62538 | 37029 ft | 469 kts | 143° |
| 2026-05-07 17:32 | 48.07187 | 9.68691 | 37025 ft | 470 kts | 143° |
| 2026-05-07 17:33 | 48.02129 | 9.74870 | 37020 ft | 470 kts | 144° |
| 2026-05-07 17:33 | 47.97054 | 9.81050 | 37022 ft | 471 kts | 144° |
| 2026-05-07 17:34 | 47.91967 | 9.87229 | 37033 ft | 471 kts | 144° |
| 2026-05-07 17:34 | 47.86867 | 9.93409 | 37040 ft | 472 kts | 144° |
| 2026-05-07 17:35 | 47.81763 | 9.99579 | 37032 ft | 473 kts | 144° |
| 2026-05-07 17:35 | 47.76653 | 10.05738 | 37013 ft | 473 kts | 144° |
| 2026-05-07 17:36 | 47.71541 | 10.11886 | 37024 ft | 473 kts | 144° |
| 2026-05-07 17:36 | 47.66454 | 10.17987 | 37030 ft | 473 kts | 144° |
| 2026-05-07 17:37 | 47.61339 | 10.24108 | 37027 ft | 473 kts | 144° |
| 2026-05-07 17:37 | 47.56212 | 10.30223 | 37040 ft | 472 kts | 145° |
| 2026-05-07 17:38 | 47.50841 | 10.35762 | 37032 ft | 469 kts | 151° |
| 2026-05-07 17:38 | 47.45336 | 10.40952 | 37033 ft | 469 kts | 151° |
| 2026-05-07 17:39 | 47.39884 | 10.46173 | 37030 ft | 469 kts | 151° |
| 2026-05-07 17:39 | 47.34433 | 10.51460 | 37032 ft | 469 kts | 151° |
| 2026-05-07 17:40 | 47.28969 | 10.56709 | 37027 ft | 467 kts | 153° |
| 2026-05-07 17:40 | 47.23135 | 10.60686 | 37048 ft | 461 kts | 162° |
| 2026-05-07 17:41 | 47.17176 | 10.64188 | 37028 ft | 461 kts | 162° |
| 2026-05-07 17:41 | 47.11256 | 10.67729 | 37018 ft | 462 kts | 162° |
| 2026-05-07 17:42 | 47.05309 | 10.71349 | 37019 ft | 463 kts | 162° |
| 2026-05-07 17:42 | 46.99342 | 10.74986 | 37004 ft | 466 kts | 162° |
| 2026-05-07 17:43 | 46.93339 | 10.78637 | 37017 ft | 467 kts | 162° |
| 2026-05-07 17:43 | 46.87340 | 10.82275 | 37015 ft | 466 kts | 162° |
| 2026-05-07 17:44 | 46.81346 | 10.85901 | 37040 ft | 465 kts | 161° |
| 2026-05-07 17:44 | 46.75805 | 10.90920 | 37042 ft | 475 kts | 143° |
| 2026-05-07 17:45 | 46.71337 | 10.97992 | 37042 ft | 479 kts | 134° |
| 2026-05-07 17:45 | 46.67033 | 11.05395 | 37023 ft | 475 kts | 134° |
| 2026-05-07 17:46 | 46.62733 | 11.12708 | 36980 ft | 476 kts | 135° |
| 2026-05-07 17:46 | 46.58401 | 11.19977 | 37029 ft | 476 kts | 135° |
| 2026-05-07 17:47 | 46.54029 | 11.27264 | 36942 ft | 480 kts | 136° |
| 2026-05-07 17:47 | 46.49622 | 11.34590 | 36938 ft | 483 kts | 136° |
| 2026-05-07 17:48 | 46.45220 | 11.41896 | 36947 ft | 483 kts | 136° |
| 2026-05-07 17:48 | 46.40823 | 11.49179 | 36938 ft | 477 kts | 136° |
| 2026-05-07 17:49 | 46.36453 | 11.56397 | 37006 ft | 476 kts | 137° |
| 2026-05-07 17:49 | 46.32079 | 11.63596 | 37000 ft | 476 kts | 136° |
| 2026-05-07 17:50 | 46.27697 | 11.70786 | 36995 ft | 477 kts | 136° |
| 2026-05-07 17:50 | 46.23300 | 11.77986 | 37002 ft | 478 kts | 136° |
| 2026-05-07 17:51 | 46.18914 | 11.85149 | 36995 ft | 479 kts | 136° |
| 2026-05-07 17:51 | 46.14475 | 11.92380 | 36992 ft | 481 kts | 136° |
| 2026-05-07 17:52 | 46.10025 | 11.99613 | 36966 ft | 482 kts | 137° |
| 2026-05-07 17:52 | 46.05596 | 12.06793 | 36981 ft | 482 kts | 137° |
| 2026-05-07 17:53 | 46.01102 | 12.14053 | 36988 ft | 483 kts | 137° |
| 2026-05-07 17:53 | 45.96644 | 12.21252 | 36982 ft | 482 kts | 137° |
| 2026-05-07 17:54 | 45.92214 | 12.28372 | 36989 ft | 481 kts | 137° |
| 2026-05-07 17:54 | 45.87743 | 12.35536 | 36978 ft | 481 kts | 137° |
| 2026-05-07 17:55 | 45.83267 | 12.42693 | 36989 ft | 481 kts | 137° |
| 2026-05-07 17:55 | 45.78795 | 12.49828 | 36991 ft | 481 kts | 137° |
| 2026-05-07 17:56 | 45.74307 | 12.56969 | 36998 ft | 481 kts | 137° |
| 2026-05-07 17:56 | 45.69840 | 12.64061 | 36980 ft | 481 kts | 137° |
| 2026-05-07 17:57 | 45.66117 | 12.69956 | 36993 ft | 480 kts | 137° |
| 2026-05-07 17:57 | 45.60905 | 12.78187 | 36988 ft | 479 kts | 138° |
| 2026-05-07 17:58 | 45.56428 | 12.85239 | 36995 ft | 479 kts | 138° |
| 2026-05-07 17:58 | 45.51947 | 12.92277 | 36994 ft | 478 kts | 138° |
| 2026-05-07 17:59 | 45.47466 | 12.99299 | 36987 ft | 478 kts | 138° |
| 2026-05-07 17:59 | 45.42985 | 13.06303 | 36995 ft | 477 kts | 138° |
| 2026-05-07 18:00 | 45.38511 | 13.13278 | 36998 ft | 477 kts | 138° |
| 2026-05-07 18:00 | 45.34065 | 13.20197 | 37003 ft | 477 kts | 138° |
| 2026-05-07 18:01 | 45.29522 | 13.27029 | 36993 ft | 473 kts | 142° |
| 2026-05-07 18:01 | 45.24651 | 13.33283 | 37002 ft | 471 kts | 145° |
| 2026-05-07 18:02 | 45.17241 | 13.42488 | 36991 ft | 472 kts | 145° |
| 2026-05-07 18:03 | 45.12318 | 13.48681 | 37017 ft | 473 kts | 144° |
| 2026-05-07 18:03 | 45.07410 | 13.54886 | 37000 ft | 474 kts | 144° |
| 2026-05-07 18:04 | 45.02490 | 13.61102 | 37014 ft | 474 kts | 144° |
| 2026-05-07 18:04 | 44.97567 | 13.67304 | 37024 ft | 475 kts | 144° |
| 2026-05-07 18:05 | 44.92632 | 13.73504 | 37010 ft | 475 kts | 145° |
| 2026-05-07 18:05 | 44.87689 | 13.79698 | 37020 ft | 475 kts | 145° |
| 2026-05-07 18:06 | 44.82745 | 13.85879 | 37015 ft | 475 kts | 145° |
| 2026-05-07 18:06 | 44.77799 | 13.92047 | 37024 ft | 475 kts | 145° |
| 2026-05-07 18:07 | 44.72880 | 13.98167 | 37024 ft | 474 kts | 145° |
| 2026-05-07 18:07 | 44.67932 | 14.04308 | 37018 ft | 474 kts | 145° |
| 2026-05-07 18:08 | 44.62980 | 14.10441 | 37008 ft | 474 kts | 145° |
| 2026-05-07 18:08 | 44.58026 | 14.16560 | 37024 ft | 473 kts | 145° |
| 2026-05-07 18:09 | 44.53081 | 14.22654 | 37020 ft | 473 kts | 145° |
| 2026-05-07 18:09 | 44.48131 | 14.28741 | 37002 ft | 473 kts | 146° |
| 2026-05-07 18:10 | 44.43178 | 14.34816 | 37018 ft | 474 kts | 146° |
| 2026-05-07 18:10 | 44.38247 | 14.40850 | 37011 ft | 474 kts | 146° |
| 2026-05-07 18:11 | 44.33280 | 14.46915 | 37025 ft | 475 kts | 146° |
| 2026-05-07 18:11 | 44.28288 | 14.52994 | 37023 ft | 476 kts | 146° |
| 2026-05-07 18:12 | 44.23291 | 14.59066 | 37016 ft | 476 kts | 146° |
| 2026-05-07 18:12 | 44.18280 | 14.65141 | 37024 ft | 477 kts | 146° |
| 2026-05-07 18:13 | 44.13290 | 14.71177 | 37028 ft | 478 kts | 146° |
| 2026-05-07 18:13 | 44.08256 | 14.77252 | 37025 ft | 479 kts | 146° |
| 2026-05-07 18:14 | 44.03215 | 14.83321 | 37025 ft | 479 kts | 146° |
| 2026-05-07 18:14 | 43.99017 | 14.88366 | 37026 ft | 479 kts | 146° |
| 2026-05-07 18:15 | 43.93968 | 14.94417 | 37011 ft | 479 kts | 146° |
| 2026-05-07 18:15 | 43.88918 | 15.00458 | 37024 ft | 479 kts | 146° |
| 2026-05-07 18:16 | 43.83869 | 15.06482 | 37031 ft | 479 kts | 146° |
| 2026-05-07 18:16 | 43.78811 | 15.12503 | 37027 ft | 479 kts | 146° |
| 2026-05-07 18:17 | 43.73757 | 15.18505 | 37025 ft | 479 kts | 146° |
| 2026-05-07 18:17 | 43.68725 | 15.24468 | 37024 ft | 479 kts | 146° |
| 2026-05-07 18:18 | 43.63657 | 15.30460 | 37008 ft | 479 kts | 146° |
| 2026-05-07 18:18 | 43.58595 | 15.36431 | 37025 ft | 478 kts | 146° |
| 2026-05-07 18:19 | 43.53538 | 15.42383 | 37024 ft | 477 kts | 147° |
| 2026-05-07 18:19 | 43.48478 | 15.48323 | 37023 ft | 478 kts | 147° |
| 2026-05-07 18:20 | 43.43414 | 15.54255 | 37024 ft | 478 kts | 147° |
| 2026-05-07 18:20 | 43.38343 | 15.60180 | 37026 ft | 479 kts | 147° |
| 2026-05-07 18:21 | 43.33292 | 15.66071 | 36987 ft | 479 kts | 147° |
| 2026-05-07 18:21 | 43.28203 | 15.71992 | 37021 ft | 479 kts | 147° |
| 2026-05-07 18:22 | 43.23104 | 15.77910 | 37029 ft | 480 kts | 147° |
| 2026-05-07 18:22 | 43.17992 | 15.83830 | 37029 ft | 482 kts | 147° |
| 2026-05-07 18:23 | 43.12868 | 15.89751 | 37029 ft | 483 kts | 147° |
| 2026-05-07 18:23 | 43.07725 | 15.95681 | 37021 ft | 484 kts | 148° |
| 2026-05-07 18:24 | 43.02602 | 16.01575 | 37009 ft | 485 kts | 148° |
| 2026-05-07 18:24 | 42.99992 | 16.04567 | 36552 ft | 492 kts | 148° |
| 2026-05-07 18:24 | 42.97374 | 16.07568 | 36041 ft | 489 kts | 148° |
| 2026-05-07 18:24 | 42.94765 | 16.10561 | 35435 ft | 489 kts | 148° |
| 2026-05-07 18:25 | 42.92152 | 16.13555 | 34816 ft | 489 kts | 148° |
| 2026-05-07 18:25 | 42.89546 | 16.16535 | 34195 ft | 489 kts | 148° |
| 2026-05-07 18:25 | 42.86932 | 16.19520 | 33442 ft | 489 kts | 148° |
| 2026-05-07 18:25 | 42.84323 | 16.22493 | 32754 ft | 489 kts | 147° |
| 2026-05-07 18:26 | 42.81752 | 16.25424 | 32204 ft | 486 kts | 147° |
| 2026-05-07 18:26 | 42.79170 | 16.28368 | 31732 ft | 480 kts | 147° |
| 2026-05-07 18:26 | 42.76618 | 16.31272 | 31264 ft | 476 kts | 147° |
| 2026-05-07 18:26 | 42.74088 | 16.34148 | 30799 ft | 472 kts | 147° |
| 2026-05-07 18:27 | 42.71568 | 16.37006 | 30329 ft | 468 kts | 146° |
| 2026-05-07 18:27 | 42.69077 | 16.39828 | 29837 ft | 465 kts | 146° |
| 2026-05-07 18:27 | 42.66603 | 16.42627 | 29319 ft | 461 kts | 146° |
| 2026-05-07 18:27 | 42.64150 | 16.45400 | 28833 ft | 456 kts | 146° |
| 2026-05-07 18:28 | 42.61721 | 16.48144 | 28344 ft | 451 kts | 146° |
| 2026-05-07 18:28 | 42.59327 | 16.50846 | 27896 ft | 446 kts | 146° |
| 2026-05-07 18:28 | 42.56946 | 16.53529 | 27424 ft | 442 kts | 146° |
| 2026-05-07 18:28 | 42.54618 | 16.56149 | 26968 ft | 438 kts | 146° |
| 2026-05-07 18:29 | 42.52278 | 16.58781 | 26507 ft | 434 kts | 146° |
| 2026-05-07 18:29 | 42.49961 | 16.61382 | 26060 ft | 430 kts | 146° |
| 2026-05-07 18:29 | 42.47667 | 16.63957 | 25613 ft | 426 kts | 146° |
| 2026-05-07 18:29 | 42.45388 | 16.66512 | 25164 ft | 423 kts | 146° |
| 2026-05-07 18:30 | 42.43128 | 16.69043 | 24749 ft | 419 kts | 146° |
| 2026-05-07 18:30 | 42.40885 | 16.71553 | 24249 ft | 417 kts | 146° |
| 2026-05-07 18:30 | 42.38653 | 16.74047 | 23807 ft | 414 kts | 145° |
| 2026-05-07 18:30 | 42.36432 | 16.76527 | 23315 ft | 412 kts | 145° |
| 2026-05-07 18:31 | 42.34235 | 16.78979 | 22825 ft | 408 kts | 144° |
| 2026-05-07 18:31 | 42.32058 | 16.81406 | 22362 ft | 404 kts | 144° |
| 2026-05-07 18:31 | 42.29890 | 16.83821 | 21911 ft | 401 kts | 144° |
| 2026-05-07 18:31 | 42.27778 | 16.86173 | 21477 ft | 397 kts | 144° |
| 2026-05-07 18:32 | 42.25657 | 16.88530 | 21041 ft | 393 kts | 144° |
| 2026-05-07 18:32 | 42.23551 | 16.90870 | 20611 ft | 390 kts | 144° |
| 2026-05-07 18:32 | 42.21459 | 16.93192 | 20193 ft | 387 kts | 144° |
| 2026-05-07 18:32 | 42.19384 | 16.95493 | 19762 ft | 384 kts | 144° |
| 2026-05-07 18:33 | 42.17325 | 16.97774 | 19340 ft | 381 kts | 144° |
| 2026-05-07 18:33 | 42.15302 | 17.00013 | 18900 ft | 379 kts | 143° |
| 2026-05-07 18:33 | 42.13263 | 17.02268 | 18474 ft | 377 kts | 143° |
| 2026-05-07 18:33 | 42.11240 | 17.04503 | 17986 ft | 376 kts | 143° |
| 2026-05-07 18:34 | 42.09223 | 17.06731 | 17534 ft | 373 kts | 143° |
| 2026-05-07 18:34 | 42.07219 | 17.08943 | 17083 ft | 370 kts | 143° |
| 2026-05-07 18:34 | 42.05238 | 17.11128 | 16655 ft | 367 kts | 143° |
| 2026-05-07 18:34 | 42.03272 | 17.13293 | 16227 ft | 364 kts | 143° |
| 2026-05-07 18:35 | 42.01321 | 17.15442 | 15814 ft | 361 kts | 144° |
| 2026-05-07 18:35 | 41.99388 | 17.17568 | 15406 ft | 357 kts | 144° |
| 2026-05-07 18:35 | 41.97467 | 17.19678 | 15010 ft | 354 kts | 144° |
| 2026-05-07 18:35 | 41.95411 | 17.21410 | 14589 ft | 345 kts | 163° |
| 2026-05-07 18:36 | 41.93092 | 17.21939 | 14231 ft | 335 kts | 184° |
| 2026-05-07 18:36 | 41.90850 | 17.21410 | 13858 ft | 329 kts | 199° |
| 2026-05-07 18:36 | 41.88817 | 17.20056 | 13417 ft | 326 kts | 216° |
| 2026-05-07 18:36 | 41.87075 | 17.18120 | 13023 ft | 323 kts | 220° |
| 2026-05-07 18:37 | 41.85410 | 17.16105 | 12624 ft | 321 kts | 221° |
| 2026-05-07 18:37 | 41.83768 | 17.14095 | 12221 ft | 319 kts | 221° |
| 2026-05-07 18:37 | 41.82128 | 17.12102 | 11841 ft | 316 kts | 220° |
| 2026-05-07 18:37 | 41.80495 | 17.10136 | 11446 ft | 314 kts | 220° |
| 2026-05-07 18:38 | 41.78872 | 17.08194 | 11072 ft | 312 kts | 220° |
| 2026-05-07 18:38 | 41.77255 | 17.06270 | 10700 ft | 310 kts | 219° |
| 2026-05-07 18:38 | 41.75655 | 17.04370 | 10500 ft | 302 kts | 219° |
| 2026-05-07 18:38 | 41.74109 | 17.02535 | 10348 ft | 290 kts | 219° |
| 2026-05-07 18:39 | 41.72507 | 17.01011 | 10197 ft | 276 kts | 202° |
| 2026-05-07 18:39 | 41.70720 | 17.00182 | 10108 ft | 269 kts | 194° |
| 2026-05-07 18:39 | 41.68962 | 16.99529 | 9932 ft | 264 kts | 193° |
| 2026-05-07 18:39 | 41.67194 | 16.98886 | 9634 ft | 262 kts | 193° |
| 2026-05-07 18:40 | 41.65435 | 16.98240 | 9359 ft | 260 kts | 193° |
| 2026-05-07 18:40 | 41.63694 | 16.97594 | 9079 ft | 259 kts | 193° |
| 2026-05-07 18:40 | 41.61960 | 16.96946 | 8799 ft | 257 kts | 194° |
| 2026-05-07 18:40 | 41.60236 | 16.96297 | 8515 ft | 256 kts | 194° |
| 2026-05-07 18:41 | 41.58525 | 16.95651 | 8245 ft | 255 kts | 194° |
| 2026-05-07 18:41 | 41.56825 | 16.95009 | 7977 ft | 253 kts | 194° |
| 2026-05-07 18:41 | 41.55136 | 16.94371 | 7705 ft | 252 kts | 194° |
| 2026-05-07 18:41 | 41.53442 | 16.93798 | 7427 ft | 250 kts | 184° |
| 2026-05-07 18:42 | 41.51743 | 16.94078 | 7182 ft | 246 kts | 162° |
| 2026-05-07 18:42 | 41.50150 | 16.94892 | 6914 ft | 245 kts | 157° |
| 2026-05-07 18:42 | 41.48625 | 16.95766 | 6800 ft | 240 kts | 157° |
| 2026-05-07 18:42 | 41.47094 | 16.96637 | 6686 ft | 239 kts | 157° |
| 2026-05-07 18:43 | 41.45557 | 16.97497 | 6581 ft | 239 kts | 158° |
| 2026-05-07 18:43 | 41.44019 | 16.98352 | 6438 ft | 240 kts | 158° |
| 2026-05-07 18:43 | 41.42440 | 16.99167 | 6176 ft | 245 kts | 160° |
| 2026-05-07 18:43 | 41.40843 | 16.99947 | 5907 ft | 243 kts | 160° |
| 2026-05-07 18:44 | 41.39259 | 17.00720 | 5682 ft | 240 kts | 160° |
| 2026-05-07 18:44 | 41.37696 | 17.01485 | 5392 ft | 240 kts | 160° |
| 2026-05-07 18:44 | 41.36144 | 17.02260 | 5206 ft | 235 kts | 160° |
| 2026-05-07 18:44 | 41.34635 | 17.03028 | 5070 ft | 228 kts | 160° |
| 2026-05-07 18:45 | 41.33178 | 17.03777 | 4957 ft | 221 kts | 159° |
| 2026-05-07 18:45 | 41.31759 | 17.04504 | 4781 ft | 217 kts | 159° |
| 2026-05-07 18:45 | 41.30362 | 17.05217 | 4595 ft | 214 kts | 160° |
| 2026-05-07 18:45 | 41.28977 | 17.05927 | 4418 ft | 213 kts | 159° |
| 2026-05-07 18:46 | 41.27595 | 17.06635 | 4241 ft | 212 kts | 159° |
| 2026-05-07 18:46 | 41.26237 | 17.07329 | 4075 ft | 212 kts | 159° |
| 2026-05-07 18:46 | 41.24862 | 17.08028 | 3898 ft | 211 kts | 159° |
| 2026-05-07 18:46 | 41.23438 | 17.08382 | 3699 ft | 213 kts | 187° |
| 2026-05-07 18:47 | 41.22147 | 17.07421 | 3462 ft | 223 kts | 224° |
| 2026-05-07 18:47 | 41.21578 | 17.05452 | 3200 ft | 235 kts | 260° |
| 2026-05-07 18:47 | 41.21382 | 17.03357 | 3048 ft | 221 kts | 250° |
| 2026-05-07 18:47 | 41.20964 | 17.01451 | 2893 ft | 209 kts | 246° |
| 2026-05-07 18:48 | 41.20520 | 16.99657 | 2710 ft | 200 kts | 244° |
| 2026-05-07 18:48 | 41.20058 | 16.97950 | 2541 ft | 193 kts | 242° |
| 2026-05-07 18:48 | 41.19581 | 16.96257 | 2516 ft | 198 kts | 243° |
| 2026-05-07 18:48 | 41.19100 | 16.94559 | 2493 ft | 194 kts | 243° |
| 2026-05-07 18:49 | 41.18645 | 16.92947 | 2474 ft | 176 kts | 242° |
| 2026-05-07 18:49 | 41.18232 | 16.91493 | 2340 ft | 164 kts | 242° |
| 2026-05-07 18:49 | 41.17835 | 16.90100 | 2136 ft | 158 kts | 242° |
| 2026-05-07 18:49 | 41.17442 | 16.88724 | 1931 ft | 161 kts | 242° |
| 2026-05-07 18:50 | 41.17047 | 16.87336 | 1719 ft | 161 kts | 243° |
| 2026-05-07 18:50 | 41.16657 | 16.85945 | 1519 ft | 160 kts | 243° |
| 2026-05-07 18:50 | 41.16277 | 16.84579 | 1304 ft | 159 kts | 243° |
| 2026-05-07 18:50 | 41.15890 | 16.83206 | 1063 ft | 158 kts | 244° |
| 2026-05-07 18:51 | 41.15467 | 16.81864 | 843 ft | 158 kts | 245° |
| 2026-05-07 18:51 | 41.15087 | 16.80501 | 634 ft | 157 kts | 249° |
| 2026-05-07 18:51 | 41.14725 | 16.79107 | 419 ft | 161 kts | 248° |
| 2026-05-07 18:51 | 41.14323 | 16.77711 | 206 ft | 162 kts | 248° |
| 2026-05-07 18:52 | 41.13933 | 16.76365 | 127 ft | 146 kts | 252° |
| 2026-05-07 18:52 | 41.13652 | 16.75351 | 140 ft | 87 kts | 250° |
| 2026-05-07 18:52 | 41.13499 | 16.74811 | 138 ft | 43 kts | 249° |
| 2026-05-07 18:52 | 41.13407 | 16.74484 | 145 ft | 34 kts | 249° |
| 2026-05-07 18:53 | 41.13343 | 16.74266 | 146 ft | 11 kts | 246° |
| 2026-05-07 18:53 | 41.13317 | 16.74172 | 146 ft | 11 kts | 250° |
| 2026-05-07 18:53 | 41.13268 | 16.74108 | 144 ft | 11 kts | 179° |
| 2026-05-07 18:53 | 41.13207 | 16.74155 | 146 ft | 10 kts | 127° |
| 2026-05-07 18:54 | 41.13172 | 16.74236 | 150 ft | 10 kts | 119° |
| 2026-05-07 18:54 | 41.13172 | 16.74324 | 152 ft | 10 kts | 70° |
| 2026-05-07 18:54 | 41.13196 | 16.74407 | 153 ft | 10 kts | 69° |
| 2026-05-07 18:54 | 41.13220 | 16.74490 | 152 ft | 10 kts | 69° |
| 2026-05-07 18:55 | 41.13247 | 16.74586 | 151 ft | 12 kts | 70° |
| 2026-05-07 18:55 | 41.13276 | 16.74691 | 151 ft | 13 kts | 69° |
| 2026-05-07 18:55 | 41.13313 | 16.74823 | 147 ft | 16 kts | 69° |
| 2026-05-07 18:55 | 41.13352 | 16.74959 | 147 ft | 15 kts | 69° |
| 2026-05-07 18:56 | 41.13389 | 16.75089 | 147 ft | 15 kts | 70° |
| 2026-05-07 18:56 | 41.13428 | 16.75228 | 142 ft | 17 kts | 69° |
| 2026-05-07 18:56 | 41.13470 | 16.75375 | 141 ft | 17 kts | 69° |
| 2026-05-07 18:56 | 41.13510 | 16.75517 | 141 ft | 16 kts | 70° |
| 2026-05-07 18:57 | 41.13554 | 16.75669 | 137 ft | 18 kts | 69° |
| 2026-05-07 18:57 | 41.13596 | 16.75816 | 137 ft | 16 kts | 69° |
| 2026-05-07 18:57 | 41.13633 | 16.75941 | 135 ft | 13 kts | 68° |
| 2026-05-07 18:57 | 41.13626 | 16.76036 | 135 ft | 11 kts | 131° |
| 2026-05-07 18:58 | 41.13570 | 16.76097 | 135 ft | 10 kts | 139° |
| 2026-05-07 18:58 | 41.13553 | 16.76171 | 135 ft | 9 kts | 74° |
| 2026-05-07 18:58 | 41.13575 | 16.76244 | 135 ft | 8 kts | 68° |
| 2026-05-07 18:58 | 41.13595 | 16.76317 | 135 ft | 8 kts | 70° |
| 2026-05-07 18:59 | 41.13615 | 16.76387 | 135 ft | 8 kts | 69° |
| 2026-05-07 18:59 | 41.13634 | 16.76453 | 135 ft | 6 kts | 69° |
| 2026-05-07 18:59 | 41.13636 | 16.76466 | 135 ft | 1 kts | 86° |
| 2026-05-07 18:59 | 41.13631 | 16.76478 | 135 ft | 2 kts | 123° |
| 2026-05-07 19:00 | 41.13608 | 16.76496 | 135 ft | 3 kts | 155° |
| 2026-05-07 19:00 | 41.13591 | 16.76505 | 135 ft | 3 kts | 160° |
| 2026-05-07 19:00 | 41.13577 | 16.76512 | 135 ft | 0 kts | 159° |